EGNR/CEG METAR and TAF weather

Enter ICAO airport designator
Station Type Date Time Source
EGNR METAR 2021/02/27 15:50 UTC NOAA

EGNR 271550Z VRB01KT 9999 FEW036 12/02 Q1041


Station Type Date Time Source
EGNR Decoded METAR 2021/02/27 15:50 UTC NOAA

Hawarden, United Kingdom (EGNR) 53-10N 002-59W 0M
Feb 27, 2021 - 10:50 AM EST / 2021.02.27 1550 UTC
Wind: Variable at 1 MPH (1 KT):0
Visibility: greater than 7 mile(s):0
Sky conditions: mostly clear
Temperature: 53 F (12 C)
Dew Point: 35 F (2 C)
Relative Humidity: 50%
Pressure (altimeter): 30.74 in. Hg (1041 hPa)
ob: EGNR 271550Z VRB01KT 9999 FEW036 12/02 Q1041
cycle: 16

Station Type Date Time Source
EGNR TAF 2016/01/23 12:00 UTC NOAA

TAF EGNR 231059Z 2312/2319 15009KT 9999 FEW020
BECMG 2316/2319 BKN014
TEMPO 2317/2319 6000 RA BKN008

Example: see airport list